Dawson, North Dakota
Current Conditions -  °F | °C
As of 8:52 AM on Wednesday 22 Oct 2014 (Local Time) from KBIS Reporting Station
Few Clouds Few Clouds  
Wind Chill: 56°   Ceiling: Unl
Heat Index: 56°   Visibility: 10mi
Dew Point: 46°   Wind: 14mph
Humidity: 69%   Direction: 280°W
Pressure: 29.82"   Gusts: 22mph
Location:  46.87°N, 99.75°W
Report Text: KBIS 221352Z 28012G19KT 10SM FEW120 13/08 A2982 RMK AO2 PRESRR SLP097 T01330078
Loading
Personal Weather Stations






























Interactive Weather Map
Tropical Storm Tracking
New forecast layout! Learn more

10-Day Weather Forecast

Advertisements
Track Severe Weather on mobile